sensor_id;sensor_type;location;lat;lon;timestamp;temperature;humidity
16879;DHT22;8556;52.218;9.884;2024-03-02T00:01:04;9.20;11.40
16879;DHT22;8556;52.218;9.884;2024-03-02T00:03:32;9.10;59.10
16879;DHT22;8556;52.218;9.884;2024-03-02T00:05:59;9.10;99.90
16879;DHT22;8556;52.218;9.884;2024-03-02T00:08:27;9.10;99.90
16879;DHT22;8556;52.218;9.884;2024-03-02T00:10:58;9.00;99.90
16879;DHT22;8556;52.218;9.884;2024-03-02T00:13:25;9.10;99.90
16879;DHT22;8556;52.218;9.884;2024-03-02T00:15:53;9.00;99.90
16879;DHT22;8556;52.218;9.884;2024-03-02T00:18:23;9.00;99.90
16879;DHT22;8556;52.218;9.884;2024-03-02T00:20:53;8.90;99.90
16879;DHT22;8556;52.218;9.884;2024-03-02T00:23:20;8.90;99.90
16879;DHT22;8556;52.218;9.884;2024-03-02T00:25:50;8.80;99.90
16879;DHT22;8556;52.218;9.884;2024-03-02T00:28:20;8.80;99.90
16879;DHT22;8556;52.218;9.884;2024-03-02T00:30:58;8.90;99.90
16879;DHT22;8556;52.218;9.884;2024-03-02T00:33:27;9.00;99.90
16879;DHT22;8556;52.218;9.884;2024-03-02T00:35:55;9.00;99.90
16879;DHT22;8556;52.218;9.884;2024-03-02T00:38:22;9.00;99.90
16879;DHT22;8556;52.218;9.884;2024-03-02T00:40:50;9.00;99.90
16879;DHT22;8556;52.218;9.884;2024-03-02T00:43:41;9.00;99.90
16879;DHT22;8556;52.218;9.884;2024-03-02T00:46:08;9.10;99.90
16879;DHT22;8556;52.218;9.884;2024-03-02T00:48:35;9.10;99.90
16879;DHT22;8556;52.218;9.884;2024-03-02T00:51:03;9.10;99.90
16879;DHT22;8556;52.218;9.884;2024-03-02T00:53:31;9.00;99.90
16879;DHT22;8556;52.218;9.884;2024-03-02T00:56:01;9.00;99.90
16879;DHT22;8556;52.218;9.884;2024-03-02T00:58:28;9.00;99.90
16879;DHT22;8556;52.218;9.884;2024-03-02T01:00:54;9.00;99.90
16879;DHT22;8556;52.218;9.884;2024-03-02T01:03:21;9.00;99.90
16879;DHT22;8556;52.218;9.884;2024-03-02T01:05:48;9.00;99.90
16879;DHT22;8556;52.218;9.884;2024-03-02T01:08:15;8.90;99.90
16879;DHT22;8556;52.218;9.884;2024-03-02T01:10:42;9.00;99.90
16879;DHT22;8556;52.218;9.884;2024-03-02T01:13:11;8.90;99.90
16879;DHT22;8556;52.218;9.884;2024-03-02T01:15:38;9.00;99.90
16879;DHT22;8556;52.218;9.884;2024-03-02T01:18:05;8.90;99.90
16879;DHT22;8556;52.218;9.884;2024-03-02T01:20:32;8.90;99.90
16879;DHT22;8556;52.218;9.884;2024-03-02T01:22:59;8.90;99.90
16879;DHT22;8556;52.218;9.884;2024-03-02T01:25:26;8.90;99.90
16879;DHT22;8556;52.218;9.884;2024-03-02T01:27:52;8.80;99.90
16879;DHT22;8556;52.218;9.884;2024-03-02T01:30:21;8.80;99.90
16879;DHT22;8556;52.218;9.884;2024-03-02T01:32:48;8.90;99.90
16879;DHT22;8556;52.218;9.884;2024-03-02T01:35:14;8.80;99.90
16879;DHT22;8556;52.218;9.884;2024-03-02T01:37:41;8.80;1.00
16879;DHT22;8556;52.218;9.884;2024-03-02T01:40:09;8.70;1.00
16879;DHT22;8556;52.218;9.884;2024-03-02T01:42:37;8.70;1.00
16879;DHT22;8556;52.218;9.884;2024-03-02T01:45:05;8.70;1.00
16879;DHT22;8556;52.218;9.884;2024-03-02T01:47:34;8.70;1.00
16879;DHT22;8556;52.218;9.884;2024-03-02T01:50:01;8.70;1.00
16879;DHT22;8556;52.218;9.884;2024-03-02T01:52:28;8.70;1.00
16879;DHT22;8556;52.218;9.884;2024-03-02T01:54:55;8.80;1.00
16879;DHT22;8556;52.218;9.884;2024-03-02T01:57:21;8.80;99.90
16879;DHT22;8556;52.218;9.884;2024-03-02T01:59:48;8.80;99.90
16879;DHT22;8556;52.218;9.884;2024-03-02T02:02:16;8.90;99.90
16879;DHT22;8556;52.218;9.884;2024-03-02T02:04:44;8.90;99.90
16879;DHT22;8556;52.218;9.884;2024-03-02T02:07:11;8.80;99.90
16879;DHT22;8556;52.218;9.884;2024-03-02T02:09:40;8.80;99.90
16879;DHT22;8556;52.218;9.884;2024-03-02T02:12:08;8.70;99.90
16879;DHT22;8556;52.218;9.884;2024-03-02T02:14:35;8.70;99.90
16879;DHT22;8556;52.218;9.884;2024-03-02T02:17:02;8.70;1.00
16879;DHT22;8556;52.218;9.884;2024-03-02T02:19:29;8.60;1.00
16879;DHT22;8556;52.218;9.884;2024-03-02T02:21:57;8.60;1.00
16879;DHT22;8556;52.218;9.884;2024-03-02T02:24:24;8.60;1.00
16879;DHT22;8556;52.218;9.884;2024-03-02T02:26:50;8.60;1.00
16879;DHT22;8556;52.218;9.884;2024-03-02T02:29:17;8.80;1.00
16879;DHT22;8556;52.218;9.884;2024-03-02T02:31:44;8.70;99.90
16879;DHT22;8556;52.218;9.884;2024-03-02T02:34:11;8.60;1.00
16879;DHT22;8556;52.218;9.884;2024-03-02T02:36:39;8.60;1.00
16879;DHT22;8556;52.218;9.884;2024-03-02T02:39:09;8.60;1.00
16879;DHT22;8556;52.218;9.884;2024-03-02T02:41:37;8.60;1.00
16879;DHT22;8556;52.218;9.884;2024-03-02T02:44:05;8.40;1.00
16879;DHT22;8556;52.218;9.884;2024-03-02T02:46:31;8.40;1.00
16879;DHT22;8556;52.218;9.884;2024-03-02T02:48:58;8.40;1.00
16879;DHT22;8556;52.218;9.884;2024-03-02T02:51:25;8.40;1.00
16879;DHT22;8556;52.218;9.884;2024-03-02T02:53:52;8.40;1.00
16879;DHT22;8556;52.218;9.884;2024-03-02T02:56:20;8.40;1.00
16879;DHT22;8556;52.218;9.884;2024-03-02T02:58:47;8.30;1.00
16879;DHT22;8556;52.218;9.884;2024-03-02T03:01:15;8.30;1.00
16879;DHT22;8556;52.218;9.884;2024-03-02T03:03:43;8.20;1.00
16879;DHT22;8556;52.218;9.884;2024-03-02T03:06:11;8.20;1.00
16879;DHT22;8556;52.218;9.884;2024-03-02T03:08:38;8.30;1.00
16879;DHT22;8556;52.218;9.884;2024-03-02T03:11:05;8.20;1.00
16879;DHT22;8556;52.218;9.884;2024-03-02T03:13:34;8.10;1.00
16879;DHT22;8556;52.218;9.884;2024-03-02T03:16:01;8.10;1.00
16879;DHT22;8556;52.218;9.884;2024-03-02T03:18:28;8.20;1.00
16879;DHT22;8556;52.218;9.884;2024-03-02T03:20:55;8.10;1.00
16879;DHT22;8556;52.218;9.884;2024-03-02T03:23:22;8.10;1.00
16879;DHT22;8556;52.218;9.884;2024-03-02T03:25:49;8.10;1.00
16879;DHT22;8556;52.218;9.884;2024-03-02T03:28:16;8.10;1.00
16879;DHT22;8556;52.218;9.884;2024-03-02T03:30:44;8.10;1.00
16879;DHT22;8556;52.218;9.884;2024-03-02T03:33:11;8.00;1.00
16879;DHT22;8556;52.218;9.884;2024-03-02T03:35:39;8.00;1.00
16879;DHT22;8556;52.218;9.884;2024-03-02T03:38:05;8.10;1.00
16879;DHT22;8556;52.218;9.884;2024-03-02T03:40:32;8.00;1.00
16879;DHT22;8556;52.218;9.884;2024-03-02T03:42:59;8.00;1.00
16879;DHT22;8556;52.218;9.884;2024-03-02T03:45:26;7.80;1.00
16879;DHT22;8556;52.218;9.884;2024-03-02T03:47:54;7.80;1.00
16879;DHT22;8556;52.218;9.884;2024-03-02T03:50:21;7.80;1.00
16879;DHT22;8556;52.218;9.884;2024-03-02T03:52:48;7.80;1.00
16879;DHT22;8556;52.218;9.884;2024-03-02T03:55:15;7.70;1.00
16879;DHT22;8556;52.218;9.884;2024-03-02T03:57:42;7.60;98.10
16879;DHT22;8556;52.218;9.884;2024-03-02T04:00:09;7.60;24.40
16879;DHT22;8556;52.218;9.884;2024-03-02T04:02:37;7.50;44.30
16879;DHT22;8556;52.218;9.884;2024-03-02T04:05:06;7.60;90.00
16879;DHT22;8556;52.218;9.884;2024-03-02T04:07:35;7.30;99.90
16879;DHT22;8556;52.218;9.884;2024-03-02T04:10:07;7.20;99.90
16879;DHT22;8556;52.218;9.884;2024-03-02T04:12:35;7.20;99.90
16879;DHT22;8556;52.218;9.884;2024-03-02T04:15:02;7.10;1.00
16879;DHT22;8556;52.218;9.884;2024-03-02T04:17:31;7.10;1.00
16879;DHT22;8556;52.218;9.884;2024-03-02T04:19:58;7.20;1.00
16879;DHT22;8556;52.218;9.884;2024-03-02T04:22:27;7.30;99.90
16879;DHT22;8556;52.218;9.884;2024-03-02T04:24:53;7.10;99.90
16879;DHT22;8556;52.218;9.884;2024-03-02T04:27:20;7.00;1.00
16879;DHT22;8556;52.218;9.884;2024-03-02T04:29:47;7.00;1.00
16879;DHT22;8556;52.218;9.884;2024-03-02T04:32:14;6.80;1.00
16879;DHT22;8556;52.218;9.884;2024-03-02T04:34:41;6.80;1.00
16879;DHT22;8556;52.218;9.884;2024-03-02T04:37:08;6.80;1.00
16879;DHT22;8556;52.218;9.884;2024-03-02T04:39:36;6.60;1.00
16879;DHT22;8556;52.218;9.884;2024-03-02T04:42:03;6.30;99.90
16879;DHT22;8556;52.218;9.884;2024-03-02T04:44:30;6.20;1.00
16879;DHT22;8556;52.218;9.884;2024-03-02T04:46:57;6.20;1.00
16879;DHT22;8556;52.218;9.884;2024-03-02T04:49:24;6.30;1.00
16879;DHT22;8556;52.218;9.884;2024-03-02T04:51:51;6.60;1.00
16879;DHT22;8556;52.218;9.884;2024-03-02T04:54:18;7.00;99.90
16879;DHT22;8556;52.218;9.884;2024-03-02T04:56:46;7.20;1.00
16879;DHT22;8556;52.218;9.884;2024-03-02T04:59:16;7.20;1.00
16879;DHT22;8556;52.218;9.884;2024-03-02T05:01:43;7.10;1.00
16879;DHT22;8556;52.218;9.884;2024-03-02T05:04:10;7.00;1.00
16879;DHT22;8556;52.218;9.884;2024-03-02T05:06:38;7.00;1.00
16879;DHT22;8556;52.218;9.884;2024-03-02T05:09:06;7.00;1.00
16879;DHT22;8556;52.218;9.884;2024-03-02T05:11:33;7.00;1.00
16879;DHT22;8556;52.218;9.884;2024-03-02T05:14:23;7.20;1.00
16879;DHT22;8556;52.218;9.884;2024-03-02T05:16:49;7.10;1.00
16879;DHT22;8556;52.218;9.884;2024-03-02T05:19:17;6.90;1.00
16879;DHT22;8556;52.218;9.884;2024-03-02T05:21:44;6.80;1.00
16879;DHT22;8556;52.218;9.884;2024-03-02T05:24:11;6.70;1.00
16879;DHT22;8556;52.218;9.884;2024-03-02T05:26:37;6.60;1.00
16879;DHT22;8556;52.218;9.884;2024-03-02T05:29:04;6.50;1.00
16879;DHT22;8556;52.218;9.884;2024-03-02T05:31:33;6.60;1.00
16879;DHT22;8556;52.218;9.884;2024-03-02T05:34:00;6.60;1.00
16879;DHT22;8556;52.218;9.884;2024-03-02T05:36:26;6.50;1.00
16879;DHT22;8556;52.218;9.884;2024-03-02T05:38:53;6.50;57.30
16879;DHT22;8556;52.218;9.884;2024-03-02T05:41:20;6.70;99.90
16879;DHT22;8556;52.218;9.884;2024-03-02T05:43:47;7.00;99.90
16879;DHT22;8556;52.218;9.884;2024-03-02T05:46:15;6.80;32.50
16879;DHT22;8556;52.218;9.884;2024-03-02T05:48:43;6.80;99.90
16879;DHT22;8556;52.218;9.884;2024-03-02T05:51:10;7.00;99.90
16879;DHT22;8556;52.218;9.884;2024-03-02T05:53:36;7.20;99.90
16879;DHT22;8556;52.218;9.884;2024-03-02T05:56:05;7.20;1.00
16879;DHT22;8556;52.218;9.884;2024-03-02T05:58:32;7.20;1.00
16879;DHT22;8556;52.218;9.884;2024-03-02T06:01:11;7.00;1.00
16879;DHT22;8556;52.218;9.884;2024-03-02T06:03:38;6.90;1.00
16879;DHT22;8556;52.218;9.884;2024-03-02T06:06:06;6.90;1.00
16879;DHT22;8556;52.218;9.884;2024-03-02T06:08:33;6.80;1.00
16879;DHT22;8556;52.218;9.884;2024-03-02T06:11:00;6.70;11.10
16879;DHT22;8556;52.218;9.884;2024-03-02T06:13:27;6.80;92.10
16879;DHT22;8556;52.218;9.884;2024-03-02T06:15:54;6.70;46.00
16879;DHT22;8556;52.218;9.884;2024-03-02T06:18:21;6.60;99.90
16879;DHT22;8556;52.218;9.884;2024-03-02T06:20:48;6.70;99.90
16879;DHT22;8556;52.218;9.884;2024-03-02T06:23:16;6.50;99.90
16879;DHT22;8556;52.218;9.884;2024-03-02T06:25:42;6.40;99.90
16879;DHT22;8556;52.218;9.884;2024-03-02T06:28:09;6.50;99.90
16879;DHT22;8556;52.218;9.884;2024-03-02T06:30:36;6.60;99.90
16879;DHT22;8556;52.218;9.884;2024-03-02T06:33:03;6.70;1.00
16879;DHT22;8556;52.218;9.884;2024-03-02T06:35:31;6.80;99.90
16879;DHT22;8556;52.218;9.884;2024-03-02T06:37:58;6.80;99.90
16879;DHT22;8556;52.218;9.884;2024-03-02T06:40:26;6.80;99.90
16879;DHT22;8556;52.218;9.884;2024-03-02T06:42:53;6.80;99.90
16879;DHT22;8556;52.218;9.884;2024-03-02T06:45:20;6.90;99.90
16879;DHT22;8556;52.218;9.884;2024-03-02T06:47:47;6.90;99.90
16879;DHT22;8556;52.218;9.884;2024-03-02T06:50:14;7.20;99.90
16879;DHT22;8556;52.218;9.884;2024-03-02T06:52:40;7.30;99.90
16879;DHT22;8556;52.218;9.884;2024-03-02T06:55:07;7.30;52.50
16879;DHT22;8556;52.218;9.884;2024-03-02T06:57:36;7.20;99.90
16879;DHT22;8556;52.218;9.884;2024-03-02T07:00:03;7.20;77.50
16879;DHT22;8556;52.218;9.884;2024-03-02T07:02:30;7.30;99.90
16879;DHT22;8556;52.218;9.884;2024-03-02T07:04:58;7.20;99.90
16879;DHT22;8556;52.218;9.884;2024-03-02T07:07:24;7.30;99.90
16879;DHT22;8556;52.218;9.884;2024-03-02T07:09:51;7.30;99.90
16879;DHT22;8556;52.218;9.884;2024-03-02T07:12:18;7.40;99.90
16879;DHT22;8556;52.218;9.884;2024-03-02T07:14:46;7.50;99.90
16879;DHT22;8556;52.218;9.884;2024-03-02T07:17:37;7.60;99.90
16879;DHT22;8556;52.218;9.884;2024-03-02T07:20:04;7.70;29.40
16879;DHT22;8556;52.218;9.884;2024-03-02T07:22:32;7.90;1.00
16879;DHT22;8556;52.218;9.884;2024-03-02T07:24:59;8.10;1.00
16879;DHT22;8556;52.218;9.884;2024-03-02T07:27:25;8.10;1.00
16879;DHT22;8556;52.218;9.884;2024-03-02T07:29:53;8.20;1.00
16879;DHT22;8556;52.218;9.884;2024-03-02T07:32:21;8.20;1.00
16879;DHT22;8556;52.218;9.884;2024-03-02T07:34:48;8.40;1.00
16879;DHT22;8556;52.218;9.884;2024-03-02T07:37:16;8.60;99.90
16879;DHT22;8556;52.218;9.884;2024-03-02T07:39:44;8.90;99.90
16879;DHT22;8556;52.218;9.884;2024-03-02T07:42:11;9.10;62.10
16879;DHT22;8556;52.218;9.884;2024-03-02T07:44:38;9.50;1.00
16879;DHT22;8556;52.218;9.884;2024-03-02T07:47:06;10.10;1.00
16879;DHT22;8556;52.218;9.884;2024-03-02T07:49:33;10.20;1.00
16879;DHT22;8556;52.218;9.884;2024-03-02T07:52:01;10.30;1.00
16879;DHT22;8556;52.218;9.884;2024-03-02T07:54:28;10.30;1.00
16879;DHT22;8556;52.218;9.884;2024-03-02T07:56:55;10.00;1.00
16879;DHT22;8556;52.218;9.884;2024-03-02T07:59:22;9.90;99.90
16879;DHT22;8556;52.218;9.884;2024-03-02T08:01:49;9.80;99.90
16879;DHT22;8556;52.218;9.884;2024-03-02T08:04:17;9.70;99.90
16879;DHT22;8556;52.218;9.884;2024-03-02T08:06:45;9.80;99.90
16879;DHT22;8556;52.218;9.884;2024-03-02T08:09:12;9.80;99.90
16879;DHT22;8556;52.218;9.884;2024-03-02T08:11:39;10.00;99.90
16879;DHT22;8556;52.218;9.884;2024-03-02T08:14:06;10.20;99.90
16879;DHT22;8556;52.218;9.884;2024-03-02T08:16:33;10.50;99.90
16879;DHT22;8556;52.218;9.884;2024-03-02T08:19:00;10.60;99.90
16879;DHT22;8556;52.218;9.884;2024-03-02T08:21:28;10.90;99.90
16879;DHT22;8556;52.218;9.884;2024-03-02T08:23:56;11.00;71.30
16879;DHT22;8556;52.218;9.884;2024-03-02T08:26:24;11.00;1.00
16879;DHT22;8556;52.218;9.884;2024-03-02T08:28:50;11.10;1.00
16879;DHT22;8556;52.218;9.884;2024-03-02T08:31:17;11.10;1.00
16879;DHT22;8556;52.218;9.884;2024-03-02T08:33:44;11.20;1.00
16879;DHT22;8556;52.218;9.884;2024-03-02T08:36:11;11.80;1.00
16879;DHT22;8556;52.218;9.884;2024-03-02T08:38:40;11.80;1.00
16879;DHT22;8556;52.218;9.884;2024-03-02T08:41:07;11.60;1.00
16879;DHT22;8556;52.218;9.884;2024-03-02T08:43:34;12.10;1.00
16879;DHT22;8556;52.218;9.884;2024-03-02T08:46:01;12.10;1.00
16879;DHT22;8556;52.218;9.884;2024-03-02T08:48:28;12.20;1.00
16879;DHT22;8556;52.218;9.884;2024-03-02T08:50:55;11.90;1.00
16879;DHT22;8556;52.218;9.884;2024-03-02T08:53:23;11.90;1.00
16879;DHT22;8556;52.218;9.884;2024-03-02T08:55:51;12.30;1.00
16879;DHT22;8556;52.218;9.884;2024-03-02T08:58:20;12.00;1.00
16879;DHT22;8556;52.218;9.884;2024-03-02T09:00:47;11.90;1.00
16879;DHT22;8556;52.218;9.884;2024-03-02T09:03:14;11.90;1.00
16879;DHT22;8556;52.218;9.884;2024-03-02T09:05:41;11.70;1.00
16879;DHT22;8556;52.218;9.884;2024-03-02T09:08:09;11.70;1.00
16879;DHT22;8556;52.218;9.884;2024-03-02T09:10:36;11.90;1.00
16879;DHT22;8556;52.218;9.884;2024-03-02T09:13:05;11.60;99.90
16879;DHT22;8556;52.218;9.884;2024-03-02T09:15:32;11.60;1.00
16879;DHT22;8556;52.218;9.884;2024-03-02T09:18:03;11.90;99.90
16879;DHT22;8556;52.218;9.884;2024-03-02T09:20:30;11.80;99.90
16879;DHT22;8556;52.218;9.884;2024-03-02T09:22:56;12.00;99.90
16879;DHT22;8556;52.218;9.884;2024-03-02T09:25:23;11.90;99.90
16879;DHT22;8556;52.218;9.884;2024-03-02T09:27:51;12.20;99.90
16879;DHT22;8556;52.218;9.884;2024-03-02T09:30:19;12.10;99.90
16879;DHT22;8556;52.218;9.884;2024-03-02T09:32:46;12.10;99.90
16879;DHT22;8556;52.218;9.884;2024-03-02T09:35:12;12.40;99.90
16879;DHT22;8556;52.218;9.884;2024-03-02T09:37:39;12.40;99.90
16879;DHT22;8556;52.218;9.884;2024-03-02T09:40:07;12.50;99.90
16879;DHT22;8556;52.218;9.884;2024-03-02T09:42:34;12.50;99.90
16879;DHT22;8556;52.218;9.884;2024-03-02T09:45:02;12.60;99.90
16879;DHT22;8556;52.218;9.884;2024-03-02T09:47:30;12.40;99.90
16879;DHT22;8556;52.218;9.884;2024-03-02T09:49:57;12.50;99.90
16879;DHT22;8556;52.218;9.884;2024-03-02T09:52:24;12.40;99.90
16879;DHT22;8556;52.218;9.884;2024-03-02T09:54:51;12.40;99.90
16879;DHT22;8556;52.218;9.884;2024-03-02T09:57:18;12.40;99.90
16879;DHT22;8556;52.218;9.884;2024-03-02T09:59:45;12.40;99.90
16879;DHT22;8556;52.218;9.884;2024-03-02T10:02:12;12.40;99.90
16879;DHT22;8556;52.218;9.884;2024-03-02T10:04:40;12.40;99.90
16879;DHT22;8556;52.218;9.884;2024-03-02T10:07:14;12.50;99.90
16879;DHT22;8556;52.218;9.884;2024-03-02T10:09:42;12.60;99.90
16879;DHT22;8556;52.218;9.884;2024-03-02T10:12:12;12.40;99.90
16879;DHT22;8556;52.218;9.884;2024-03-02T10:14:39;12.50;99.90
16879;DHT22;8556;52.218;9.884;2024-03-02T10:17:07;12.60;98.60
16879;DHT22;8556;52.218;9.884;2024-03-02T10:19:35;12.50;1.00
16879;DHT22;8556;52.218;9.884;2024-03-02T10:22:05;12.50;1.00
16879;DHT22;8556;52.218;9.884;2024-03-02T10:24:36;12.60;1.00
16879;DHT22;8556;52.218;9.884;2024-03-02T10:27:10;12.70;1.00
16879;DHT22;8556;52.218;9.884;2024-03-02T10:29:38;12.80;1.00
16879;DHT22;8556;52.218;9.884;2024-03-02T10:32:06;12.60;1.00
16879;DHT22;8556;52.218;9.884;2024-03-02T10:34:35;12.80;1.00
16879;DHT22;8556;52.218;9.884;2024-03-02T10:37:04;12.90;1.00
16879;DHT22;8556;52.218;9.884;2024-03-02T10:39:31;12.90;1.00
16879;DHT22;8556;52.218;9.884;2024-03-02T10:42:02;13.00;1.00
16879;DHT22;8556;52.218;9.884;2024-03-02T10:44:30;12.80;1.00
16879;DHT22;8556;52.218;9.884;2024-03-02T10:47:00;13.20;1.00
16879;DHT22;8556;52.218;9.884;2024-03-02T10:49:29;13.40;1.00
16879;DHT22;8556;52.218;9.884;2024-03-02T10:51:56;13.30;1.00
16879;DHT22;8556;52.218;9.884;2024-03-02T10:54:25;13.60;1.00
16879;DHT22;8556;52.218;9.884;2024-03-02T10:56:56;13.70;1.00
16879;DHT22;8556;52.218;9.884;2024-03-02T10:59:27;13.80;1.00
16879;DHT22;8556;52.218;9.884;2024-03-02T11:01:56;13.80;1.00
16879;DHT22;8556;52.218;9.884;2024-03-02T11:04:25;13.80;1.00
16879;DHT22;8556;52.218;9.884;2024-03-02T11:06:54;13.90;1.00
16879;DHT22;8556;52.218;9.884;2024-03-02T11:09:27;13.70;1.00
16879;DHT22;8556;52.218;9.884;2024-03-02T11:12:00;13.70;1.00
16879;DHT22;8556;52.218;9.884;2024-03-02T11:14:30;14.00;1.00
16879;DHT22;8556;52.218;9.884;2024-03-02T11:16:58;14.40;1.00
16879;DHT22;8556;52.218;9.884;2024-03-02T11:19:27;14.10;1.00
16879;DHT22;8556;52.218;9.884;2024-03-02T11:21:54;14.30;1.00
16879;DHT22;8556;52.218;9.884;2024-03-02T11:24:35;14.00;1.00
16879;DHT22;8556;52.218;9.884;2024-03-02T11:27:03;14.20;1.00
16879;DHT22;8556;52.218;9.884;2024-03-02T11:29:45;14.30;1.00
16879;DHT22;8556;52.218;9.884;2024-03-02T11:32:21;14.40;1.00
16879;DHT22;8556;52.218;9.884;2024-03-02T11:34:49;14.20;1.00
16879;DHT22;8556;52.218;9.884;2024-03-02T11:37:17;14.40;1.00
16879;DHT22;8556;52.218;9.884;2024-03-02T11:39:46;14.30;1.00
16879;DHT22;8556;52.218;9.884;2024-03-02T11:42:14;14.60;1.00
16879;DHT22;8556;52.218;9.884;2024-03-02T11:44:43;14.50;1.00
16879;DHT22;8556;52.218;9.884;2024-03-02T11:47:13;14.20;1.00
16879;DHT22;8556;52.218;9.884;2024-03-02T11:49:44;14.30;1.00
16879;DHT22;8556;52.218;9.884;2024-03-02T11:52:12;14.20;1.00
16879;DHT22;8556;52.218;9.884;2024-03-02T11:54:41;14.30;1.00
16879;DHT22;8556;52.218;9.884;2024-03-02T11:57:14;14.20;1.00
16879;DHT22;8556;52.218;9.884;2024-03-02T11:59:41;14.20;1.00
16879;DHT22;8556;52.218;9.884;2024-03-02T12:02:15;14.40;1.00
16879;DHT22;8556;52.218;9.884;2024-03-02T12:04:42;14.30;1.00
16879;DHT22;8556;52.218;9.884;2024-03-02T12:07:10;14.20;1.00
16879;DHT22;8556;52.218;9.884;2024-03-02T12:09:37;14.40;1.00
16879;DHT22;8556;52.218;9.884;2024-03-02T12:12:05;14.50;1.00
16879;DHT22;8556;52.218;9.884;2024-03-02T12:14:35;14.20;1.00
16879;DHT22;8556;52.218;9.884;2024-03-02T12:17:03;14.50;1.00
16879;DHT22;8556;52.218;9.884;2024-03-02T12:19:31;14.60;1.00
16879;DHT22;8556;52.218;9.884;2024-03-02T12:21:58;14.60;1.00
16879;DHT22;8556;52.218;9.884;2024-03-02T12:24:27;14.70;1.00
16879;DHT22;8556;52.218;9.884;2024-03-02T12:26:54;14.80;1.00
16879;DHT22;8556;52.218;9.884;2024-03-02T12:29:22;14.90;1.00
16879;DHT22;8556;52.218;9.884;2024-03-02T12:31:51;15.20;1.00
16879;DHT22;8556;52.218;9.884;2024-03-02T12:34:19;15.70;1.00
16879;DHT22;8556;52.218;9.884;2024-03-02T12:36:47;15.60;1.00
16879;DHT22;8556;52.218;9.884;2024-03-02T12:39:16;15.60;1.00
16879;DHT22;8556;52.218;9.884;2024-03-02T12:41:43;15.70;1.00
16879;DHT22;8556;52.218;9.884;2024-03-02T12:44:10;15.70;1.00
16879;DHT22;8556;52.218;9.884;2024-03-02T12:46:37;16.20;1.00
16879;DHT22;8556;52.218;9.884;2024-03-02T12:49:08;16.10;1.00
16879;DHT22;8556;52.218;9.884;2024-03-02T12:51:36;16.10;1.00
16879;DHT22;8556;52.218;9.884;2024-03-02T12:54:03;16.10;1.00
16879;DHT22;8556;52.218;9.884;2024-03-02T12:56:31;16.00;1.00
16879;DHT22;8556;52.218;9.884;2024-03-02T12:58:58;16.30;1.00
16879;DHT22;8556;52.218;9.884;2024-03-02T13:01:25;16.60;1.00
16879;DHT22;8556;52.218;9.884;2024-03-02T13:03:53;17.00;1.00
16879;DHT22;8556;52.218;9.884;2024-03-02T13:06:23;16.90;1.00
16879;DHT22;8556;52.218;9.884;2024-03-02T13:08:53;16.40;99.90
16879;DHT22;8556;52.218;9.884;2024-03-02T13:11:21;16.60;1.00
16879;DHT22;8556;52.218;9.884;2024-03-02T13:13:48;16.30;99.90
16879;DHT22;8556;52.218;9.884;2024-03-02T13:16:15;16.00;99.90
16879;DHT22;8556;52.218;9.884;2024-03-02T13:18:44;16.30;99.90
16879;DHT22;8556;52.218;9.884;2024-03-02T13:21:11;16.30;99.90
16879;DHT22;8556;52.218;9.884;2024-03-02T13:23:40;16.30;99.90
16879;DHT22;8556;52.218;9.884;2024-03-02T13:26:06;16.60;99.90
16879;DHT22;8556;52.218;9.884;2024-03-02T13:28:36;16.90;99.90
16879;DHT22;8556;52.218;9.884;2024-03-02T13:31:03;16.80;99.90
16879;DHT22;8556;52.218;9.884;2024-03-02T13:33:31;16.70;99.90
16879;DHT22;8556;52.218;9.884;2024-03-02T13:35:58;16.50;99.90
16879;DHT22;8556;52.218;9.884;2024-03-02T13:38:25;16.50;99.90
16879;DHT22;8556;52.218;9.884;2024-03-02T13:40:53;16.10;99.90
16879;DHT22;8556;52.218;9.884;2024-03-02T13:43:20;16.40;99.90
16879;DHT22;8556;52.218;9.884;2024-03-02T13:45:49;16.30;99.90
16879;DHT22;8556;52.218;9.884;2024-03-02T13:48:17;16.10;99.90
16879;DHT22;8556;52.218;9.884;2024-03-02T13:50:44;16.50;99.90
16879;DHT22;8556;52.218;9.884;2024-03-02T13:53:11;16.10;99.90
16879;DHT22;8556;52.218;9.884;2024-03-02T13:55:38;16.40;99.90
16879;DHT22;8556;52.218;9.884;2024-03-02T13:58:08;16.00;99.90
16879;DHT22;8556;52.218;9.884;2024-03-02T14:00:36;16.30;99.90
16879;DHT22;8556;52.218;9.884;2024-03-02T14:03:04;16.30;99.90
16879;DHT22;8556;52.218;9.884;2024-03-02T14:05:32;15.80;99.90
16879;DHT22;8556;52.218;9.884;2024-03-02T14:07:59;16.50;99.90
16879;DHT22;8556;52.218;9.884;2024-03-02T14:10:26;16.10;99.90
16879;DHT22;8556;52.218;9.884;2024-03-02T14:12:54;16.10;99.90
16879;DHT22;8556;52.218;9.884;2024-03-02T14:15:23;16.20;99.90
16879;DHT22;8556;52.218;9.884;2024-03-02T14:17:50;16.20;99.90
16879;DHT22;8556;52.218;9.884;2024-03-02T14:20:17;16.00;99.90
16879;DHT22;8556;52.218;9.884;2024-03-02T14:22:47;16.40;99.90
16879;DHT22;8556;52.218;9.884;2024-03-02T14:25:15;16.40;99.90
16879;DHT22;8556;52.218;9.884;2024-03-02T14:27:41;16.10;99.90
16879;DHT22;8556;52.218;9.884;2024-03-02T14:30:09;15.70;99.90
16879;DHT22;8556;52.218;9.884;2024-03-02T14:32:38;15.90;99.90
16879;DHT22;8556;52.218;9.884;2024-03-02T14:35:05;16.10;99.90
16879;DHT22;8556;52.218;9.884;2024-03-02T14:37:35;16.00;99.90
16879;DHT22;8556;52.218;9.884;2024-03-02T14:40:03;15.70;99.90
16879;DHT22;8556;52.218;9.884;2024-03-02T14:42:32;15.60;99.90
16879;DHT22;8556;52.218;9.884;2024-03-02T14:44:58;15.80;99.90
16879;DHT22;8556;52.218;9.884;2024-03-02T14:47:25;15.50;99.90
16879;DHT22;8556;52.218;9.884;2024-03-02T14:49:54;15.40;99.90
16879;DHT22;8556;52.218;9.884;2024-03-02T14:52:21;15.30;99.90
16879;DHT22;8556;52.218;9.884;2024-03-02T14:54:47;15.30;99.90
16879;DHT22;8556;52.218;9.884;2024-03-02T14:57:14;15.40;99.90
16879;DHT22;8556;52.218;9.884;2024-03-02T14:59:41;15.30;99.90
16879;DHT22;8556;52.218;9.884;2024-03-02T15:02:08;15.20;99.90
16879;DHT22;8556;52.218;9.884;2024-03-02T15:04:35;15.00;99.90
16879;DHT22;8556;52.218;9.884;2024-03-02T15:07:04;14.90;99.90
16879;DHT22;8556;52.218;9.884;2024-03-02T15:09:31;14.80;99.90
16879;DHT22;8556;52.218;9.884;2024-03-02T15:12:00;14.70;99.90
16879;DHT22;8556;52.218;9.884;2024-03-02T15:14:27;14.50;99.90
16879;DHT22;8556;52.218;9.884;2024-03-02T15:16:54;14.60;99.90
16879;DHT22;8556;52.218;9.884;2024-03-02T15:19:21;14.60;99.90
16879;DHT22;8556;52.218;9.884;2024-03-02T15:21:48;14.50;99.90
16879;DHT22;8556;52.218;9.884;2024-03-02T15:24:15;14.50;99.90
16879;DHT22;8556;52.218;9.884;2024-03-02T15:26:42;14.40;99.90
16879;DHT22;8556;52.218;9.884;2024-03-02T15:29:09;14.20;99.90
16879;DHT22;8556;52.218;9.884;2024-03-02T15:31:36;14.30;99.90
16879;DHT22;8556;52.218;9.884;2024-03-02T15:34:03;14.50;99.90
16879;DHT22;8556;52.218;9.884;2024-03-02T15:36:30;14.50;99.90
16879;DHT22;8556;52.218;9.884;2024-03-02T15:38:57;14.50;99.90
16879;DHT22;8556;52.218;9.884;2024-03-02T15:41:25;14.40;99.90
16879;DHT22;8556;52.218;9.884;2024-03-02T15:43:52;14.30;99.90
16879;DHT22;8556;52.218;9.884;2024-03-02T15:46:19;14.40;99.90
16879;DHT22;8556;52.218;9.884;2024-03-02T15:48:46;14.10;99.90
16879;DHT22;8556;52.218;9.884;2024-03-02T15:51:13;14.00;99.90
16879;DHT22;8556;52.218;9.884;2024-03-02T15:53:40;14.00;99.90
16879;DHT22;8556;52.218;9.884;2024-03-02T15:56:07;14.00;99.90
16879;DHT22;8556;52.218;9.884;2024-03-02T15:58:35;14.00;99.90
16879;DHT22;8556;52.218;9.884;2024-03-02T16:01:03;14.10;1.00
16879;DHT22;8556;52.218;9.884;2024-03-02T16:03:30;13.90;1.00
16879;DHT22;8556;52.218;9.884;2024-03-02T16:05:58;13.90;1.00